METAR Formatted Surface Weather Observation
Issued by NWS Pocatello, ID

Home | Current Version | Previous Version | Text Only | Print | Product List | Glossary On
Versions: 1 2 3 4 5 6 7 8 9 10 11 12 13 14 15 16 17 18 19 20 21 22 23 24 25 26 27 28 29 30 31 32 33 34 35 36
000
SAUS45 KPIH 261752
MTRSNT
METAR KSNT 261751Z AUTO 01005KT 25/03 A3024 RMK AO1 SLP134 T02500028
10250 20028 56018



USA.gov is the U.S. government's official web portal to all federal, state and local government web resources and services.